sensor_id;sensor_type;location;lat;lon;timestamp;P1;durP1;ratioP1;P2;durP2;ratioP2
12556;SDS011;6344;49.932;8.308;2022-10-17T00:02:11;29.70;;;20.57;;
12556;SDS011;6344;49.932;8.308;2022-10-17T00:04:39;26.97;;;21.70;;
12556;SDS011;6344;49.932;8.308;2022-10-17T00:07:05;22.03;;;19.33;;
12556;SDS011;6344;49.932;8.308;2022-10-17T00:09:32;28.73;;;22.83;;
12556;SDS011;6344;49.932;8.308;2022-10-17T00:11:59;27.53;;;22.27;;
12556;SDS011;6344;49.932;8.308;2022-10-17T00:14:26;29.63;;;21.90;;
12556;SDS011;6344;49.932;8.308;2022-10-17T00:16:53;24.43;;;19.33;;
12556;SDS011;6344;49.932;8.308;2022-10-17T00:19:20;29.50;;;21.63;;
12556;SDS011;6344;49.932;8.308;2022-10-17T00:21:48;22.80;;;20.57;;
12556;SDS011;6344;49.932;8.308;2022-10-17T00:24:15;21.30;;;18.37;;
12556;SDS011;6344;49.932;8.308;2022-10-17T00:26:42;22.30;;;19.90;;
12556;SDS011;6344;49.932;8.308;2022-10-17T00:29:09;23.50;;;19.63;;
12556;SDS011;6344;49.932;8.308;2022-10-17T00:31:35;20.00;;;17.97;;
12556;SDS011;6344;49.932;8.308;2022-10-17T00:34:02;29.97;;;18.57;;
12556;SDS011;6344;49.932;8.308;2022-10-17T00:36:29;62.67;;;25.93;;
12556;SDS011;6344;49.932;8.308;2022-10-17T00:38:57;26.87;;;21.37;;
12556;SDS011;6344;49.932;8.308;2022-10-17T00:41:27;22.60;;;19.30;;
12556;SDS011;6344;49.932;8.308;2022-10-17T00:43:56;46.40;;;22.30;;
12556;SDS011;6344;49.932;8.308;2022-10-17T00:46:24;57.23;;;25.00;;
12556;SDS011;6344;49.932;8.308;2022-10-17T00:48:53;80.47;;;26.70;;
12556;SDS011;6344;49.932;8.308;2022-10-17T00:51:22;192.63;;;33.70;;
12556;SDS011;6344;49.932;8.308;2022-10-17T00:53:54;122.20;;;29.43;;
12556;SDS011;6344;49.932;8.308;2022-10-17T00:56:22;169.47;;;32.87;;
12556;SDS011;6344;49.932;8.308;2022-10-17T00:58:49;175.80;;;31.50;;
12556;SDS011;6344;49.932;8.308;2022-10-17T01:01:16;164.40;;;31.97;;
12556;SDS011;6344;49.932;8.308;2022-10-17T01:03:43;179.10;;;32.37;;
12556;SDS011;6344;49.932;8.308;2022-10-17T01:06:09;179.67;;;32.53;;
12556;SDS011;6344;49.932;8.308;2022-10-17T01:08:36;122.97;;;30.40;;
12556;SDS011;6344;49.932;8.308;2022-10-17T01:11:05;178.70;;;33.80;;
12556;SDS011;6344;49.932;8.308;2022-10-17T01:13:41;240.17;;;37.07;;
12556;SDS011;6344;49.932;8.308;2022-10-17T01:16:15;119.97;;;32.50;;
12556;SDS011;6344;49.932;8.308;2022-10-17T01:18:50;56.77;;;27.57;;
12556;SDS011;6344;49.932;8.308;2022-10-17T01:21:29;142.87;;;27.60;;
12556;SDS011;6344;49.932;8.308;2022-10-17T01:24:06;136.20;;;31.30;;
12556;SDS011;6344;49.932;8.308;2022-10-17T01:30:14;85.77;;;25.90;;
12556;SDS011;6344;49.932;8.308;2022-10-17T01:33:18;108.90;;;28.27;;
12556;SDS011;6344;49.932;8.308;2022-10-17T01:35:51;212.27;;;34.13;;
12556;SDS011;6344;49.932;8.308;2022-10-17T01:38:23;245.47;;;38.40;;
12556;SDS011;6344;49.932;8.308;2022-10-17T01:40:55;156.70;;;30.37;;
12556;SDS011;6344;49.932;8.308;2022-10-17T01:43:28;99.47;;;28.63;;
12556;SDS011;6344;49.932;8.308;2022-10-17T01:46:00;130.03;;;29.17;;
12556;SDS011;6344;49.932;8.308;2022-10-17T01:48:35;223.27;;;36.13;;
12556;SDS011;6344;49.932;8.308;2022-10-17T01:51:06;139.20;;;31.60;;
12556;SDS011;6344;49.932;8.308;2022-10-17T01:53:36;105.33;;;27.80;;
12556;SDS011;6344;49.932;8.308;2022-10-17T01:56:08;149.57;;;32.50;;
12556;SDS011;6344;49.932;8.308;2022-10-17T01:58:38;139.07;;;30.07;;
12556;SDS011;6344;49.932;8.308;2022-10-17T02:01:08;301.77;;;44.77;;
12556;SDS011;6344;49.932;8.308;2022-10-17T02:03:38;178.43;;;35.10;;
12556;SDS011;6344;49.932;8.308;2022-10-17T02:06:07;81.93;;;28.07;;
12556;SDS011;6344;49.932;8.308;2022-10-17T02:08:39;84.97;;;27.00;;
12556;SDS011;6344;49.932;8.308;2022-10-17T02:11:08;60.33;;;26.43;;
12556;SDS011;6344;49.932;8.308;2022-10-17T02:13:43;111.37;;;31.57;;
12556;SDS011;6344;49.932;8.308;2022-10-17T02:16:31;33.70;;;22.93;;
12556;SDS011;6344;49.932;8.308;2022-10-17T02:19:11;41.50;;;24.40;;
12556;SDS011;6344;49.932;8.308;2022-10-17T02:21:50;41.60;;;23.50;;
12556;SDS011;6344;49.932;8.308;2022-10-17T02:24:26;231.73;;;37.97;;
12556;SDS011;6344;49.932;8.308;2022-10-17T02:27:01;56.33;;;26.17;;
12556;SDS011;6344;49.932;8.308;2022-10-17T02:29:33;40.13;;;23.37;;
12556;SDS011;6344;49.932;8.308;2022-10-17T02:32:05;21.73;;;19.43;;
12556;SDS011;6344;49.932;8.308;2022-10-17T02:34:37;25.27;;;20.00;;
12556;SDS011;6344;49.932;8.308;2022-10-17T02:37:07;124.40;;;29.03;;
12556;SDS011;6344;49.932;8.308;2022-10-17T02:39:38;26.67;;;20.43;;
12556;SDS011;6344;49.932;8.308;2022-10-17T02:42:08;42.90;;;21.27;;
12556;SDS011;6344;49.932;8.308;2022-10-17T02:44:37;106.67;;;26.63;;
12556;SDS011;6344;49.932;8.308;2022-10-17T02:47:08;119.17;;;30.23;;
12556;SDS011;6344;49.932;8.308;2022-10-17T02:49:40;203.47;;;34.93;;
12556;SDS011;6344;49.932;8.308;2022-10-17T02:52:11;328.47;;;40.87;;
12556;SDS011;6344;49.932;8.308;2022-10-17T02:54:41;223.03;;;35.13;;
12556;SDS011;6344;49.932;8.308;2022-10-17T02:57:13;54.43;;;24.97;;
12556;SDS011;6344;49.932;8.308;2022-10-17T02:59:44;24.37;;;20.63;;
12556;SDS011;6344;49.932;8.308;2022-10-17T03:02:11;24.37;;;20.07;;
12556;SDS011;6344;49.932;8.308;2022-10-17T03:04:42;20.27;;;18.17;;
12556;SDS011;6344;49.932;8.308;2022-10-17T03:07:09;24.67;;;20.13;;
12556;SDS011;6344;49.932;8.308;2022-10-17T03:09:36;19.70;;;17.03;;
12556;SDS011;6344;49.932;8.308;2022-10-17T03:12:03;23.00;;;20.57;;
12556;SDS011;6344;49.932;8.308;2022-10-17T03:14:30;23.73;;;19.83;;
12556;SDS011;6344;49.932;8.308;2022-10-17T03:16:57;33.17;;;20.47;;
12556;SDS011;6344;49.932;8.308;2022-10-17T03:19:23;43.40;;;21.40;;
12556;SDS011;6344;49.932;8.308;2022-10-17T03:21:51;34.13;;;21.80;;
12556;SDS011;6344;49.932;8.308;2022-10-17T03:24:18;31.00;;;22.37;;
12556;SDS011;6344;49.932;8.308;2022-10-17T03:26:45;22.77;;;19.10;;
12556;SDS011;6344;49.932;8.308;2022-10-17T03:29:12;23.83;;;19.10;;
12556;SDS011;6344;49.932;8.308;2022-10-17T03:31:39;33.47;;;19.40;;
12556;SDS011;6344;49.932;8.308;2022-10-17T03:34:05;27.97;;;20.30;;
12556;SDS011;6344;49.932;8.308;2022-10-17T03:36:32;26.50;;;20.77;;
12556;SDS011;6344;49.932;8.308;2022-10-17T03:39:00;21.43;;;19.13;;
12556;SDS011;6344;49.932;8.308;2022-10-17T03:41:27;20.00;;;17.90;;
12556;SDS011;6344;49.932;8.308;2022-10-17T03:43:53;22.87;;;20.37;;
12556;SDS011;6344;49.932;8.308;2022-10-17T03:46:20;20.47;;;18.40;;
12556;SDS011;6344;49.932;8.308;2022-10-17T03:48:47;19.33;;;17.23;;
12556;SDS011;6344;49.932;8.308;2022-10-17T03:51:13;19.90;;;17.80;;
12556;SDS011;6344;49.932;8.308;2022-10-17T03:53:41;20.20;;;18.10;;
12556;SDS011;6344;49.932;8.308;2022-10-17T03:56:09;23.57;;;20.63;;
12556;SDS011;6344;49.932;8.308;2022-10-17T03:58:38;21.73;;;19.53;;
12556;SDS011;6344;49.932;8.308;2022-10-17T04:01:05;27.87;;;21.17;;
12556;SDS011;6344;49.932;8.308;2022-10-17T04:03:33;28.47;;;21.57;;
12556;SDS011;6344;49.932;8.308;2022-10-17T04:06:00;23.73;;;20.67;;
12556;SDS011;6344;49.932;8.308;2022-10-17T04:08:28;27.17;;;20.97;;
12556;SDS011;6344;49.932;8.308;2022-10-17T04:10:56;72.63;;;24.53;;
12556;SDS011;6344;49.932;8.308;2022-10-17T04:13:25;95.73;;;27.87;;
12556;SDS011;6344;49.932;8.308;2022-10-17T04:15:53;173.20;;;32.27;;
12556;SDS011;6344;49.932;8.308;2022-10-17T04:18:20;247.70;;;34.87;;
12556;SDS011;6344;49.932;8.308;2022-10-17T04:20:47;254.83;;;34.50;;
12556;SDS011;6344;49.932;8.308;2022-10-17T04:23:14;235.93;;;36.47;;
12556;SDS011;6344;49.932;8.308;2022-10-17T04:25:41;161.07;;;34.23;;
12556;SDS011;6344;49.932;8.308;2022-10-17T04:28:08;180.77;;;34.17;;
12556;SDS011;6344;49.932;8.308;2022-10-17T04:30:36;228.47;;;38.40;;
12556;SDS011;6344;49.932;8.308;2022-10-17T04:33:03;218.70;;;37.83;;
12556;SDS011;6344;49.932;8.308;2022-10-17T04:35:30;42.10;;;21.83;;
12556;SDS011;6344;49.932;8.308;2022-10-17T04:37:57;41.73;;;23.13;;
12556;SDS011;6344;49.932;8.308;2022-10-17T04:40:24;30.73;;;22.67;;
12556;SDS011;6344;49.932;8.308;2022-10-17T04:42:50;38.67;;;24.53;;
12556;SDS011;6344;49.932;8.308;2022-10-17T04:45:17;26.60;;;22.20;;
12556;SDS011;6344;49.932;8.308;2022-10-17T04:47:45;26.57;;;20.60;;
12556;SDS011;6344;49.932;8.308;2022-10-17T04:50:12;37.33;;;24.23;;
12556;SDS011;6344;49.932;8.308;2022-10-17T04:52:39;45.20;;;22.47;;
12556;SDS011;6344;49.932;8.308;2022-10-17T04:55:06;208.63;;;37.53;;
12556;SDS011;6344;49.932;8.308;2022-10-17T04:57:33;71.07;;;28.23;;
12556;SDS011;6344;49.932;8.308;2022-10-17T05:00:00;70.27;;;28.73;;
12556;SDS011;6344;49.932;8.308;2022-10-17T05:02:27;52.77;;;27.93;;
12556;SDS011;6344;49.932;8.308;2022-10-17T05:04:55;86.67;;;29.83;;
12556;SDS011;6344;49.932;8.308;2022-10-17T05:07:22;49.33;;;27.87;;
12556;SDS011;6344;49.932;8.308;2022-10-17T05:09:49;51.00;;;26.47;;
12556;SDS011;6344;49.932;8.308;2022-10-17T05:12:15;181.27;;;34.70;;
12556;SDS011;6344;49.932;8.308;2022-10-17T05:14:42;236.70;;;38.23;;
12556;SDS011;6344;49.932;8.308;2022-10-17T05:17:09;107.00;;;31.80;;
12556;SDS011;6344;49.932;8.308;2022-10-17T05:19:35;96.83;;;31.43;;
12556;SDS011;6344;49.932;8.308;2022-10-17T05:22:03;75.47;;;29.50;;
12556;SDS011;6344;49.932;8.308;2022-10-17T05:24:30;185.07;;;35.20;;
12556;SDS011;6344;49.932;8.308;2022-10-17T05:26:57;149.93;;;32.60;;
12556;SDS011;6344;49.932;8.308;2022-10-17T05:29:23;263.83;;;39.37;;
12556;SDS011;6344;49.932;8.308;2022-10-17T05:31:50;226.73;;;37.17;;
12556;SDS011;6344;49.932;8.308;2022-10-17T05:34:17;154.40;;;34.23;;
12556;SDS011;6344;49.932;8.308;2022-10-17T05:36:43;95.00;;;30.50;;
12556;SDS011;6344;49.932;8.308;2022-10-17T05:39:12;52.53;;;29.13;;
12556;SDS011;6344;49.932;8.308;2022-10-17T05:41:43;74.30;;;29.00;;
12556;SDS011;6344;49.932;8.308;2022-10-17T05:44:10;58.83;;;26.80;;
12556;SDS011;6344;49.932;8.308;2022-10-17T05:46:37;43.83;;;25.70;;
12556;SDS011;6344;49.932;8.308;2022-10-17T05:49:07;80.83;;;28.93;;
12556;SDS011;6344;49.932;8.308;2022-10-17T05:51:34;30.17;;;22.80;;
12556;SDS011;6344;49.932;8.308;2022-10-17T05:54:03;77.37;;;28.90;;
12556;SDS011;6344;49.932;8.308;2022-10-17T05:56:31;491.60;;;120.10;;
12556;SDS011;6344;49.932;8.308;2022-10-17T05:58:59;54.20;;;42.13;;
12556;SDS011;6344;49.932;8.308;2022-10-17T06:01:26;32.20;;;26.83;;
12556;SDS011;6344;49.932;8.308;2022-10-17T06:03:53;26.37;;;23.53;;
12556;SDS011;6344;49.932;8.308;2022-10-17T06:06:19;65.50;;;53.13;;
12556;SDS011;6344;49.932;8.308;2022-10-17T06:08:46;23.37;;;20.50;;
12556;SDS011;6344;49.932;8.308;2022-10-17T06:11:13;31.20;;;23.10;;
12556;SDS011;6344;49.932;8.308;2022-10-17T06:13:41;29.37;;;24.37;;
12556;SDS011;6344;49.932;8.308;2022-10-17T06:16:08;32.40;;;24.20;;
12556;SDS011;6344;49.932;8.308;2022-10-17T06:18:34;38.13;;;25.13;;
12556;SDS011;6344;49.932;8.308;2022-10-17T06:21:02;35.87;;;24.50;;
12556;SDS011;6344;49.932;8.308;2022-10-17T06:23:30;118.13;;;33.27;;
12556;SDS011;6344;49.932;8.308;2022-10-17T06:25:58;70.03;;;30.40;;
12556;SDS011;6344;49.932;8.308;2022-10-17T06:28:25;101.30;;;32.77;;
12556;SDS011;6344;49.932;8.308;2022-10-17T06:30:53;240.07;;;41.17;;
12556;SDS011;6344;49.932;8.308;2022-10-17T06:33:20;242.33;;;41.37;;
12556;SDS011;6344;49.932;8.308;2022-10-17T06:35:49;212.80;;;39.90;;
12556;SDS011;6344;49.932;8.308;2022-10-17T06:38:16;127.27;;;36.10;;
12556;SDS011;6344;49.932;8.308;2022-10-17T06:40:43;105.73;;;34.87;;
12556;SDS011;6344;49.932;8.308;2022-10-17T06:43:10;111.83;;;34.17;;
12556;SDS011;6344;49.932;8.308;2022-10-17T06:45:37;186.80;;;38.63;;
12556;SDS011;6344;49.932;8.308;2022-10-17T06:48:05;135.37;;;37.30;;
12556;SDS011;6344;49.932;8.308;2022-10-17T06:50:33;111.83;;;36.70;;
12556;SDS011;6344;49.932;8.308;2022-10-17T06:53:00;195.30;;;40.17;;
12556;SDS011;6344;49.932;8.308;2022-10-17T06:55:27;126.73;;;38.97;;
12556;SDS011;6344;49.932;8.308;2022-10-17T06:57:53;89.83;;;36.07;;
12556;SDS011;6344;49.932;8.308;2022-10-17T07:00:20;194.10;;;42.43;;
12556;SDS011;6344;49.932;8.308;2022-10-17T07:02:47;145.87;;;37.37;;
12556;SDS011;6344;49.932;8.308;2022-10-17T07:05:16;179.93;;;41.47;;
12556;SDS011;6344;49.932;8.308;2022-10-17T07:07:43;159.83;;;36.47;;
12556;SDS011;6344;49.932;8.308;2022-10-17T07:10:10;109.63;;;35.53;;
12556;SDS011;6344;49.932;8.308;2022-10-17T07:12:36;155.57;;;41.30;;
12556;SDS011;6344;49.932;8.308;2022-10-17T07:15:03;41.73;;;26.47;;
12556;SDS011;6344;49.932;8.308;2022-10-17T07:17:31;30.63;;;21.87;;
12556;SDS011;6344;49.932;8.308;2022-10-17T07:19:57;41.00;;;24.57;;
12556;SDS011;6344;49.932;8.308;2022-10-17T07:22:25;22.93;;;18.63;;
12556;SDS011;6344;49.932;8.308;2022-10-17T07:24:52;26.23;;;20.13;;
12556;SDS011;6344;49.932;8.308;2022-10-17T07:27:19;19.60;;;17.67;;
12556;SDS011;6344;49.932;8.308;2022-10-17T07:29:46;17.97;;;16.27;;
12556;SDS011;6344;49.932;8.308;2022-10-17T07:32:12;15.27;;;13.80;;
12556;SDS011;6344;49.932;8.308;2022-10-17T07:34:39;14.23;;;12.83;;
12556;SDS011;6344;49.932;8.308;2022-10-17T07:37:06;13.30;;;12.10;;
12556;SDS011;6344;49.932;8.308;2022-10-17T07:39:35;10.93;;;9.90;;
12556;SDS011;6344;49.932;8.308;2022-10-17T07:42:03;10.73;;;9.70;;
12556;SDS011;6344;49.932;8.308;2022-10-17T07:44:32;11.13;;;10.33;;
12556;SDS011;6344;49.932;8.308;2022-10-17T07:46:59;10.30;;;9.43;;
12556;SDS011;6344;49.932;8.308;2022-10-17T07:49:26;8.97;;;8.40;;
12556;SDS011;6344;49.932;8.308;2022-10-17T07:51:53;9.00;;;8.30;;
12556;SDS011;6344;49.932;8.308;2022-10-17T07:54:20;9.10;;;8.50;;
12556;SDS011;6344;49.932;8.308;2022-10-17T07:56:48;9.40;;;8.80;;
12556;SDS011;6344;49.932;8.308;2022-10-17T07:59:15;8.40;;;7.90;;
12556;SDS011;6344;49.932;8.308;2022-10-17T08:01:42;8.60;;;8.00;;
12556;SDS011;6344;49.932;8.308;2022-10-17T08:04:08;8.47;;;7.97;;
12556;SDS011;6344;49.932;8.308;2022-10-17T08:06:35;7.00;;;6.30;;
12556;SDS011;6344;49.932;8.308;2022-10-17T08:09:02;8.47;;;7.63;;
12556;SDS011;6344;49.932;8.308;2022-10-17T08:11:29;8.63;;;7.93;;
12556;SDS011;6344;49.932;8.308;2022-10-17T08:13:57;9.13;;;8.53;;
12556;SDS011;6344;49.932;8.308;2022-10-17T08:16:24;7.83;;;7.13;;
12556;SDS011;6344;49.932;8.308;2022-10-17T08:18:50;7.73;;;7.20;;
12556;SDS011;6344;49.932;8.308;2022-10-17T08:21:17;8.53;;;7.90;;
12556;SDS011;6344;49.932;8.308;2022-10-17T08:23:44;8.43;;;7.83;;
12556;SDS011;6344;49.932;8.308;2022-10-17T08:26:11;8.97;;;8.33;;
12556;SDS011;6344;49.932;8.308;2022-10-17T08:28:41;9.57;;;8.87;;
12556;SDS011;6344;49.932;8.308;2022-10-17T08:31:10;8.53;;;7.73;;
12556;SDS011;6344;49.932;8.308;2022-10-17T08:33:37;8.50;;;7.27;;
12556;SDS011;6344;49.932;8.308;2022-10-17T08:36:05;8.57;;;7.50;;
12556;SDS011;6344;49.932;8.308;2022-10-17T08:38:32;7.67;;;7.10;;
12556;SDS011;6344;49.932;8.308;2022-10-17T08:41:01;8.37;;;7.87;;
12556;SDS011;6344;49.932;8.308;2022-10-17T08:43:32;9.40;;;8.60;;
12556;SDS011;6344;49.932;8.308;2022-10-17T08:46:10;8.10;;;7.60;;
12556;SDS011;6344;49.932;8.308;2022-10-17T08:48:39;9.30;;;8.20;;
12556;SDS011;6344;49.932;8.308;2022-10-17T08:51:10;10.20;;;7.90;;
12556;SDS011;6344;49.932;8.308;2022-10-17T08:53:40;8.37;;;7.43;;
12556;SDS011;6344;49.932;8.308;2022-10-17T08:56:14;9.37;;;8.57;;
12556;SDS011;6344;49.932;8.308;2022-10-17T08:58:43;8.70;;;7.90;;
12556;SDS011;6344;49.932;8.308;2022-10-17T09:01:13;8.00;;;7.30;;
12556;SDS011;6344;49.932;8.308;2022-10-17T09:03:58;7.50;;;7.00;;
12556;SDS011;6344;49.932;8.308;2022-10-17T09:06:35;7.83;;;7.13;;
12556;SDS011;6344;49.932;8.308;2022-10-17T09:09:09;7.33;;;6.93;;
12556;SDS011;6344;49.932;8.308;2022-10-17T09:11:47;8.43;;;7.73;;
12556;SDS011;6344;49.932;8.308;2022-10-17T09:14:34;6.70;;;6.20;;
12556;SDS011;6344;49.932;8.308;2022-10-17T09:17:37;7.10;;;5.97;;
12556;SDS011;6344;49.932;8.308;2022-10-17T09:20:10;6.40;;;6.00;;
12556;SDS011;6344;49.932;8.308;2022-10-17T09:22:42;6.07;;;5.43;;
12556;SDS011;6344;49.932;8.308;2022-10-17T09:25:13;9.10;;;5.90;;
12556;SDS011;6344;49.932;8.308;2022-10-17T09:27:43;7.23;;;5.50;;
12556;SDS011;6344;49.932;8.308;2022-10-17T09:30:21;7.03;;;5.87;;
12556;SDS011;6344;49.932;8.308;2022-10-17T09:32:54;6.33;;;5.07;;
12556;SDS011;6344;49.932;8.308;2022-10-17T09:35:21;5.80;;;5.20;;
12556;SDS011;6344;49.932;8.308;2022-10-17T09:37:49;5.40;;;4.90;;
12556;SDS011;6344;49.932;8.308;2022-10-17T09:40:17;8.67;;;5.40;;
12556;SDS011;6344;49.932;8.308;2022-10-17T09:42:47;6.30;;;5.70;;
12556;SDS011;6344;49.932;8.308;2022-10-17T09:45:17;6.23;;;4.80;;
12556;SDS011;6344;49.932;8.308;2022-10-17T09:47:49;5.67;;;5.23;;
12556;SDS011;6344;49.932;8.308;2022-10-17T09:50:26;5.40;;;4.70;;
12556;SDS011;6344;49.932;8.308;2022-10-17T09:52:54;6.20;;;5.60;;
12556;SDS011;6344;49.932;8.308;2022-10-17T09:55:25;8.37;;;6.03;;
12556;SDS011;6344;49.932;8.308;2022-10-17T09:57:58;7.40;;;5.50;;
12556;SDS011;6344;49.932;8.308;2022-10-17T10:00:27;5.30;;;4.90;;
12556;SDS011;6344;49.932;8.308;2022-10-17T10:03:08;5.87;;;5.27;;
12556;SDS011;6344;49.932;8.308;2022-10-17T10:05:38;5.10;;;4.50;;
12556;SDS011;6344;49.932;8.308;2022-10-17T10:08:11;5.60;;;4.60;;
12556;SDS011;6344;49.932;8.308;2022-10-17T10:10:39;5.00;;;4.70;;
12556;SDS011;6344;49.932;8.308;2022-10-17T10:13:15;5.00;;;4.50;;
12556;SDS011;6344;49.932;8.308;2022-10-17T10:15:44;4.83;;;4.53;;
12556;SDS011;6344;49.932;8.308;2022-10-17T10:18:27;5.23;;;4.83;;
12556;SDS011;6344;49.932;8.308;2022-10-17T10:23:45;16.13;;;5.57;;
12556;SDS011;6344;49.932;8.308;2022-10-17T10:26:31;8.40;;;4.23;;
12556;SDS011;6344;49.932;8.308;2022-10-17T10:29:02;9.20;;;4.70;;
12556;SDS011;6344;49.932;8.308;2022-10-17T10:31:32;5.30;;;5.00;;
12556;SDS011;6344;49.932;8.308;2022-10-17T10:34:16;5.20;;;4.73;;
12556;SDS011;6344;49.932;8.308;2022-10-17T10:36:48;5.33;;;4.63;;
12556;SDS011;6344;49.932;8.308;2022-10-17T10:39:24;4.70;;;4.30;;
12556;SDS011;6344;49.932;8.308;2022-10-17T10:42:01;5.20;;;4.80;;
12556;SDS011;6344;49.932;8.308;2022-10-17T10:44:31;4.60;;;4.30;;
12556;SDS011;6344;49.932;8.308;2022-10-17T10:47:06;5.10;;;4.70;;
12556;SDS011;6344;49.932;8.308;2022-10-17T10:49:41;4.40;;;4.10;;
12556;SDS011;6344;49.932;8.308;2022-10-17T10:52:09;4.50;;;4.10;;
12556;SDS011;6344;49.932;8.308;2022-10-17T10:54:42;4.97;;;4.57;;
12556;SDS011;6344;49.932;8.308;2022-10-17T10:57:16;4.80;;;4.50;;
12556;SDS011;6344;49.932;8.308;2022-10-17T10:59:47;6.10;;;5.00;;
12556;SDS011;6344;49.932;8.308;2022-10-17T11:02:23;5.50;;;4.40;;
12556;SDS011;6344;49.932;8.308;2022-10-17T11:04:56;5.67;;;4.30;;
12556;SDS011;6344;49.932;8.308;2022-10-17T11:07:28;4.77;;;4.37;;
12556;SDS011;6344;49.932;8.308;2022-10-17T11:09:59;5.53;;;4.67;;
12556;SDS011;6344;49.932;8.308;2022-10-17T11:12:34;5.03;;;4.50;;
12556;SDS011;6344;49.932;8.308;2022-10-17T11:15:06;6.07;;;4.13;;
12556;SDS011;6344;49.932;8.308;2022-10-17T11:17:41;4.57;;;4.27;;
12556;SDS011;6344;49.932;8.308;2022-10-17T11:20:19;7.20;;;4.37;;
12556;SDS011;6344;49.932;8.308;2022-10-17T11:22:51;4.17;;;3.93;;
12556;SDS011;6344;49.932;8.308;2022-10-17T11:25:28;6.83;;;4.70;;
12556;SDS011;6344;49.932;8.308;2022-10-17T11:27:57;5.33;;;4.83;;
12556;SDS011;6344;49.932;8.308;2022-10-17T11:30:26;5.17;;;4.77;;
12556;SDS011;6344;49.932;8.308;2022-10-17T11:32:58;4.97;;;4.40;;
12556;SDS011;6344;49.932;8.308;2022-10-17T11:35:29;5.00;;;4.60;;
12556;SDS011;6344;49.932;8.308;2022-10-17T11:38:01;5.90;;;5.40;;
12556;SDS011;6344;49.932;8.308;2022-10-17T11:40:34;4.97;;;4.67;;
12556;SDS011;6344;49.932;8.308;2022-10-17T11:43:04;5.30;;;4.90;;
12556;SDS011;6344;49.932;8.308;2022-10-17T11:45:38;7.00;;;4.70;;
12556;SDS011;6344;49.932;8.308;2022-10-17T11:48:11;5.27;;;4.87;;
12556;SDS011;6344;49.932;8.308;2022-10-17T11:50:42;4.83;;;4.43;;
12556;SDS011;6344;49.932;8.308;2022-10-17T11:53:13;4.53;;;4.23;;
12556;SDS011;6344;49.932;8.308;2022-10-17T11:55:42;5.20;;;4.80;;
12556;SDS011;6344;49.932;8.308;2022-10-17T11:58:23;5.10;;;4.70;;
12556;SDS011;6344;49.932;8.308;2022-10-17T12:00:57;4.60;;;4.20;;
12556;SDS011;6344;49.932;8.308;2022-10-17T12:03:39;4.50;;;4.10;;
12556;SDS011;6344;49.932;8.308;2022-10-17T12:06:14;4.80;;;4.40;;
12556;SDS011;6344;49.932;8.308;2022-10-17T12:08:47;4.33;;;3.90;;
12556;SDS011;6344;49.932;8.308;2022-10-17T12:11:26;5.10;;;4.67;;
12556;SDS011;6344;49.932;8.308;2022-10-17T12:13:59;3.60;;;3.30;;
12556;SDS011;6344;49.932;8.308;2022-10-17T12:16:37;5.10;;;4.70;;
12556;SDS011;6344;49.932;8.308;2022-10-17T12:19:25;5.27;;;4.90;;
12556;SDS011;6344;49.932;8.308;2022-10-17T12:22:01;4.80;;;4.50;;
12556;SDS011;6344;49.932;8.308;2022-10-17T12:24:32;4.30;;;4.00;;
12556;SDS011;6344;49.932;8.308;2022-10-17T12:30:03;4.20;;;3.90;;
12556;SDS011;6344;49.932;8.308;2022-10-17T12:32:44;6.17;;;4.17;;
12556;SDS011;6344;49.932;8.308;2022-10-17T12:35:30;4.23;;;3.87;;
12556;SDS011;6344;49.932;8.308;2022-10-17T12:38:01;5.40;;;4.90;;
12556;SDS011;6344;49.932;8.308;2022-10-17T12:40:55;4.00;;;3.80;;
12556;SDS011;6344;49.932;8.308;2022-10-17T12:43:35;4.93;;;4.53;;
12556;SDS011;6344;49.932;8.308;2022-10-17T12:49:19;4.10;;;3.80;;
12556;SDS011;6344;49.932;8.308;2022-10-17T12:52:16;5.10;;;3.50;;
12556;SDS011;6344;49.932;8.308;2022-10-17T12:54:50;4.07;;;3.77;;
12556;SDS011;6344;49.932;8.308;2022-10-17T12:57:29;6.60;;;4.10;;
12556;SDS011;6344;49.932;8.308;2022-10-17T13:00:02;5.83;;;3.87;;
12556;SDS011;6344;49.932;8.308;2022-10-17T13:02:37;4.57;;;4.17;;
12556;SDS011;6344;49.932;8.308;2022-10-17T13:05:04;3.90;;;3.60;;
12556;SDS011;6344;49.932;8.308;2022-10-17T13:07:36;4.70;;;4.30;;
12556;SDS011;6344;49.932;8.308;2022-10-17T13:10:15;4.77;;;4.37;;
12556;SDS011;6344;49.932;8.308;2022-10-17T13:12:46;4.17;;;3.87;;
12556;SDS011;6344;49.932;8.308;2022-10-17T13:15:14;4.90;;;4.50;;
12556;SDS011;6344;49.932;8.308;2022-10-17T13:17:44;5.87;;;5.37;;
12556;SDS011;6344;49.932;8.308;2022-10-17T13:20:17;6.07;;;5.60;;
12556;SDS011;6344;49.932;8.308;2022-10-17T13:22:44;5.60;;;3.40;;
12556;SDS011;6344;49.932;8.308;2022-10-17T13:25:13;4.60;;;4.13;;
12556;SDS011;6344;49.932;8.308;2022-10-17T13:27:41;4.80;;;3.97;;
12556;SDS011;6344;49.932;8.308;2022-10-17T13:30:23;4.40;;;4.00;;
12556;SDS011;6344;49.932;8.308;2022-10-17T13:32:51;4.17;;;3.90;;
12556;SDS011;6344;49.932;8.308;2022-10-17T13:35:22;4.83;;;4.43;;
12556;SDS011;6344;49.932;8.308;2022-10-17T13:37:52;4.43;;;4.03;;
12556;SDS011;6344;49.932;8.308;2022-10-17T13:40:22;5.23;;;4.07;;
12556;SDS011;6344;49.932;8.308;2022-10-17T13:42:51;4.47;;;4.07;;
12556;SDS011;6344;49.932;8.308;2022-10-17T13:45:21;6.43;;;4.47;;
12556;SDS011;6344;49.932;8.308;2022-10-17T13:47:53;4.30;;;3.90;;
12556;SDS011;6344;49.932;8.308;2022-10-17T13:50:23;4.80;;;4.40;;
12556;SDS011;6344;49.932;8.308;2022-10-17T13:53:13;9.23;;;4.17;;
12556;SDS011;6344;49.932;8.308;2022-10-17T13:55:51;4.13;;;3.67;;
12556;SDS011;6344;49.932;8.308;2022-10-17T13:58:23;5.50;;;5.10;;
12556;SDS011;6344;49.932;8.308;2022-10-17T14:00:52;5.00;;;4.23;;
12556;SDS011;6344;49.932;8.308;2022-10-17T14:03:19;4.33;;;4.03;;
12556;SDS011;6344;49.932;8.308;2022-10-17T14:05:59;4.80;;;4.33;;
12556;SDS011;6344;49.932;8.308;2022-10-17T14:08:31;5.23;;;4.40;;
12556;SDS011;6344;49.932;8.308;2022-10-17T14:11:00;5.30;;;4.40;;
12556;SDS011;6344;49.932;8.308;2022-10-17T14:13:28;4.27;;;3.97;;
12556;SDS011;6344;49.932;8.308;2022-10-17T14:16:00;7.43;;;4.83;;
12556;SDS011;6344;49.932;8.308;2022-10-17T14:18:29;4.67;;;4.00;;
12556;SDS011;6344;49.932;8.308;2022-10-17T14:20:58;4.77;;;4.37;;
12556;SDS011;6344;49.932;8.308;2022-10-17T14:23:30;5.93;;;4.87;;
12556;SDS011;6344;49.932;8.308;2022-10-17T14:26:04;4.77;;;4.27;;
12556;SDS011;6344;49.932;8.308;2022-10-17T14:28:37;5.10;;;4.30;;
12556;SDS011;6344;49.932;8.308;2022-10-17T14:31:09;4.70;;;4.20;;
12556;SDS011;6344;49.932;8.308;2022-10-17T14:33:42;9.00;;;3.93;;
12556;SDS011;6344;49.932;8.308;2022-10-17T14:36:11;7.20;;;4.80;;
12556;SDS011;6344;49.932;8.308;2022-10-17T14:38:43;4.33;;;4.10;;
12556;SDS011;6344;49.932;8.308;2022-10-17T14:41:13;5.10;;;4.70;;
12556;SDS011;6344;49.932;8.308;2022-10-17T14:43:50;5.30;;;4.80;;
12556;SDS011;6344;49.932;8.308;2022-10-17T14:46:19;9.67;;;6.03;;
12556;SDS011;6344;49.932;8.308;2022-10-17T14:48:50;6.47;;;5.87;;
12556;SDS011;6344;49.932;8.308;2022-10-17T14:51:18;4.77;;;4.37;;
12556;SDS011;6344;49.932;8.308;2022-10-17T14:53:58;5.13;;;4.00;;
12556;SDS011;6344;49.932;8.308;2022-10-17T14:56:33;7.30;;;4.47;;
12556;SDS011;6344;49.932;8.308;2022-10-17T14:59:05;6.13;;;4.87;;
12556;SDS011;6344;49.932;8.308;2022-10-17T15:01:34;9.17;;;4.73;;
12556;SDS011;6344;49.932;8.308;2022-10-17T15:04:00;5.40;;;4.60;;
12556;SDS011;6344;49.932;8.308;2022-10-17T15:06:30;4.20;;;3.90;;
12556;SDS011;6344;49.932;8.308;2022-10-17T15:08:58;7.20;;;4.53;;
12556;SDS011;6344;49.932;8.308;2022-10-17T15:11:25;7.83;;;6.73;;
12556;SDS011;6344;49.932;8.308;2022-10-17T15:13:53;5.70;;;5.20;;
12556;SDS011;6344;49.932;8.308;2022-10-17T15:16:21;5.27;;;4.90;;
12556;SDS011;6344;49.932;8.308;2022-10-17T15:18:49;6.37;;;5.33;;